TimeCDT,TemperatureF,Dew PointF,Humidity,Sea Level PressureIn,VisibilityMPH,Wind Direction,Wind SpeedMPH,Gust SpeedMPH,PrecipitationIn,Events,Conditions,WindDirDegrees,DateUTC
12:53 AM,66.0,59.0,78,30.00,10.0,South,4.6,-,N/A,,Clear,170,2013-07-05 05:53:00
1:53 AM,64.9,59.0,81,30.00,10.0,SE,3.5,-,N/A,,Clear,130,2013-07-05 06:53:00
2:53 AM,63.0,59.0,87,29.99,10.0,SSE,4.6,-,N/A,,Clear,160,2013-07-05 07:53:00
3:53 AM,64.9,57.9,78,30.00,10.0,South,4.6,-,N/A,,Clear,170,2013-07-05 08:53:00
4:53 AM,63.0,57.9,84,30.00,10.0,South,5.8,-,N/A,,Clear,180,2013-07-05 09:53:00
5:53 AM,62.1,57.9,86,30.02,8.0,SE,4.6,-,N/A,,Clear,140,2013-07-05 10:53:00
6:53 AM,64.9,59.0,81,30.02,10.0,South,5.8,-,N/A,,Clear,190,2013-07-05 11:53:00
7:53 AM,70.0,61.0,73,30.03,10.0,South,8.1,-,N/A,,Clear,180,2013-07-05 12:53:00
8:53 AM,75.0,62.1,64,30.04,10.0,South,8.1,-,N/A,,Clear,190,2013-07-05 13:53:00
9:53 AM,79.0,61.0,54,30.03,10.0,SW,8.1,-,N/A,,Clear,220,2013-07-05 14:53:00
10:53 AM,81.0,63.0,54,30.03,10.0,South,8.1,-,N/A,,Clear,170,2013-07-05 15:53:00
11:53 AM,82.9,62.1,49,30.03,10.0,South,3.5,-,N/A,,Clear,190,2013-07-05 16:53:00
12:53 PM,84.9,62.1,46,30.02,10.0,South,6.9,-,N/A,,Clear,170,2013-07-05 17:53:00
1:53 PM,87.1,61.0,41,30.01,10.0,South,9.2,-,N/A,,Clear,190,2013-07-05 18:53:00
2:53 PM,88.0,60.1,39,29.99,10.0,South,8.1,-,N/A,,Clear,190,2013-07-05 19:53:00
3:53 PM,87.1,60.1,40,29.98,10.0,South,6.9,-,N/A,,Partly Cloudy,180,2013-07-05 20:53:00
4:53 PM,87.1,61.0,41,29.97,10.0,South,9.2,-,N/A,,Clear,180,2013-07-05 21:53:00
5:53 PM,86.0,61.0,43,29.96,10.0,SSE,11.5,-,N/A,,Scattered Clouds,160,2013-07-05 22:53:00
6:53 PM,84.0,62.1,47,29.95,10.0,SSE,12.7,-,N/A,,Clear,160,2013-07-05 23:53:00
7:53 PM,81.0,61.0,50,29.95,10.0,SSE,9.2,-,N/A,,Clear,150,2013-07-06 00:53:00
8:53 PM,78.1,62.1,58,29.95,10.0,SE,8.1,-,N/A,,Clear,140,2013-07-06 01:53:00
9:53 PM,75.9,61.0,60,29.96,10.0,SE,10.4,-,N/A,,Clear,140,2013-07-06 02:53:00
10:53 PM,73.0,59.0,61,29.97,10.0,SE,9.2,-,N/A,,Clear,130,2013-07-06 03:53:00
11:53 PM,71.1,59.0,66,29.98,10.0,SE,6.9,-,N/A,,Clear,140,2013-07-06 04:53:00